sensor_id;sensor_type;location;lat;lon;timestamp;P1;durP1;ratioP1;P2;durP2;ratioP2
5493;SDS011;2769;49.864;8.656;2024-02-14T00:01:08;2.90;;;2.70;;
5493;SDS011;2769;49.864;8.656;2024-02-14T00:03:36;2.93;;;2.60;;
5493;SDS011;2769;49.864;8.656;2024-02-14T00:06:05;3.13;;;2.83;;
5493;SDS011;2769;49.864;8.656;2024-02-14T00:08:33;2.70;;;2.50;;
5493;SDS011;2769;49.864;8.656;2024-02-14T00:11:01;3.03;;;2.70;;
5493;SDS011;2769;49.864;8.656;2024-02-14T00:13:29;5.30;;;3.00;;
5493;SDS011;2769;49.864;8.656;2024-02-14T00:16:02;4.57;;;2.80;;
5493;SDS011;2769;49.864;8.656;2024-02-14T00:18:33;3.60;;;3.13;;
5493;SDS011;2769;49.864;8.656;2024-02-14T00:21:01;3.70;;;3.23;;
5493;SDS011;2769;49.864;8.656;2024-02-14T00:23:29;3.17;;;2.67;;
5493;SDS011;2769;49.864;8.656;2024-02-14T00:25:57;5.43;;;2.90;;
5493;SDS011;2769;49.864;8.656;2024-02-14T00:28:25;5.43;;;3.17;;
5493;SDS011;2769;49.864;8.656;2024-02-14T00:30:54;3.20;;;2.90;;
5493;SDS011;2769;49.864;8.656;2024-02-14T00:33:23;3.37;;;2.80;;
5493;SDS011;2769;49.864;8.656;2024-02-14T00:35:51;3.27;;;2.80;;
5493;SDS011;2769;49.864;8.656;2024-02-14T00:38:19;5.43;;;2.87;;
5493;SDS011;2769;49.864;8.656;2024-02-14T00:40:47;5.00;;;2.90;;
5493;SDS011;2769;49.864;8.656;2024-02-14T00:43:15;3.37;;;3.10;;
5493;SDS011;2769;49.864;8.656;2024-02-14T00:45:43;2.90;;;2.70;;
5493;SDS011;2769;49.864;8.656;2024-02-14T00:48:11;2.27;;;2.17;;
5493;SDS011;2769;49.864;8.656;2024-02-14T00:50:40;3.17;;;2.40;;
5493;SDS011;2769;49.864;8.656;2024-02-14T00:53:08;6.10;;;3.30;;
5493;SDS011;2769;49.864;8.656;2024-02-14T00:55:36;8.17;;;2.90;;
5493;SDS011;2769;49.864;8.656;2024-02-14T00:58:04;3.73;;;2.80;;
5493;SDS011;2769;49.864;8.656;2024-02-14T01:00:32;7.03;;;2.70;;
5493;SDS011;2769;49.864;8.656;2024-02-14T01:03:02;4.00;;;2.50;;
5493;SDS011;2769;49.864;8.656;2024-02-14T01:05:30;3.67;;;2.90;;
5493;SDS011;2769;49.864;8.656;2024-02-14T01:07:59;5.90;;;2.90;;
5493;SDS011;2769;49.864;8.656;2024-02-14T01:10:27;4.10;;;2.60;;
5493;SDS011;2769;49.864;8.656;2024-02-14T01:12:56;6.10;;;2.77;;
5493;SDS011;2769;49.864;8.656;2024-02-14T01:15:24;5.77;;;2.53;;
5493;SDS011;2769;49.864;8.656;2024-02-14T01:17:52;4.43;;;2.53;;
5493;SDS011;2769;49.864;8.656;2024-02-14T01:20:20;2.50;;;2.20;;
5493;SDS011;2769;49.864;8.656;2024-02-14T01:22:47;4.87;;;2.73;;
5493;SDS011;2769;49.864;8.656;2024-02-14T01:25:17;3.07;;;2.33;;
5493;SDS011;2769;49.864;8.656;2024-02-14T01:27:45;4.40;;;2.67;;
5493;SDS011;2769;49.864;8.656;2024-02-14T01:30:13;4.27;;;2.57;;
5493;SDS011;2769;49.864;8.656;2024-02-14T01:32:41;1.90;;;1.80;;
5493;SDS011;2769;49.864;8.656;2024-02-14T01:35:09;2.33;;;1.97;;
5493;SDS011;2769;49.864;8.656;2024-02-14T01:37:37;2.93;;;2.30;;
5493;SDS011;2769;49.864;8.656;2024-02-14T01:40:06;4.20;;;2.10;;
5493;SDS011;2769;49.864;8.656;2024-02-14T01:42:39;2.70;;;1.87;;
5493;SDS011;2769;49.864;8.656;2024-02-14T01:45:07;2.27;;;1.80;;
5493;SDS011;2769;49.864;8.656;2024-02-14T01:47:35;1.83;;;1.63;;
5493;SDS011;2769;49.864;8.656;2024-02-14T01:50:05;4.67;;;2.07;;
5493;SDS011;2769;49.864;8.656;2024-02-14T01:52:35;2.10;;;1.83;;
5493;SDS011;2769;49.864;8.656;2024-02-14T01:55:04;5.70;;;2.07;;
5493;SDS011;2769;49.864;8.656;2024-02-14T01:57:33;4.03;;;1.90;;
5493;SDS011;2769;49.864;8.656;2024-02-14T02:00:03;6.73;;;1.47;;
5493;SDS011;2769;49.864;8.656;2024-02-14T02:02:38;1.73;;;1.63;;
5493;SDS011;2769;49.864;8.656;2024-02-14T02:05:12;2.60;;;1.67;;
5493;SDS011;2769;49.864;8.656;2024-02-14T02:07:47;6.90;;;2.00;;
5493;SDS011;2769;49.864;8.656;2024-02-14T02:10:16;4.30;;;2.07;;
5493;SDS011;2769;49.864;8.656;2024-02-14T02:12:44;7.20;;;2.40;;
5493;SDS011;2769;49.864;8.656;2024-02-14T02:15:13;3.33;;;1.80;;
5493;SDS011;2769;49.864;8.656;2024-02-14T02:17:41;2.43;;;1.90;;
5493;SDS011;2769;49.864;8.656;2024-02-14T02:20:12;7.27;;;2.00;;
5493;SDS011;2769;49.864;8.656;2024-02-14T02:22:45;2.93;;;1.80;;
5493;SDS011;2769;49.864;8.656;2024-02-14T02:25:14;2.20;;;2.07;;
5493;SDS011;2769;49.864;8.656;2024-02-14T02:27:43;7.63;;;2.10;;
5493;SDS011;2769;49.864;8.656;2024-02-14T02:30:11;4.13;;;1.90;;
5493;SDS011;2769;49.864;8.656;2024-02-14T02:32:41;1.50;;;1.40;;
5493;SDS011;2769;49.864;8.656;2024-02-14T02:35:10;2.83;;;2.03;;
5493;SDS011;2769;49.864;8.656;2024-02-14T02:37:38;8.17;;;2.50;;
5493;SDS011;2769;49.864;8.656;2024-02-14T02:40:08;2.47;;;2.27;;
5493;SDS011;2769;49.864;8.656;2024-02-14T02:42:37;2.63;;;2.33;;
5493;SDS011;2769;49.864;8.656;2024-02-14T02:45:05;3.90;;;2.50;;
5493;SDS011;2769;49.864;8.656;2024-02-14T02:47:33;2.77;;;2.40;;
5493;SDS011;2769;49.864;8.656;2024-02-14T02:50:01;6.53;;;2.40;;
5493;SDS011;2769;49.864;8.656;2024-02-14T02:52:30;3.23;;;2.17;;
5493;SDS011;2769;49.864;8.656;2024-02-14T02:54:58;8.07;;;3.13;;
5493;SDS011;2769;49.864;8.656;2024-02-14T02:57:28;10.07;;;2.80;;
5493;SDS011;2769;49.864;8.656;2024-02-14T02:59:58;6.30;;;3.37;;
5493;SDS011;2769;49.864;8.656;2024-02-14T03:02:26;2.67;;;2.37;;
5493;SDS011;2769;49.864;8.656;2024-02-14T03:04:54;4.13;;;3.07;;
5493;SDS011;2769;49.864;8.656;2024-02-14T03:07:23;3.70;;;3.00;;
5493;SDS011;2769;49.864;8.656;2024-02-14T03:09:51;5.90;;;3.00;;
5493;SDS011;2769;49.864;8.656;2024-02-14T03:12:19;2.57;;;2.37;;
5493;SDS011;2769;49.864;8.656;2024-02-14T03:14:50;4.20;;;2.37;;
5493;SDS011;2769;49.864;8.656;2024-02-14T03:17:18;5.73;;;2.50;;
5493;SDS011;2769;49.864;8.656;2024-02-14T03:19:46;6.00;;;2.70;;
5493;SDS011;2769;49.864;8.656;2024-02-14T03:22:15;6.37;;;2.70;;
5493;SDS011;2769;49.864;8.656;2024-02-14T03:24:45;3.17;;;2.30;;
5493;SDS011;2769;49.864;8.656;2024-02-14T03:27:13;9.47;;;2.57;;
5493;SDS011;2769;49.864;8.656;2024-02-14T03:29:43;3.40;;;2.17;;
5493;SDS011;2769;49.864;8.656;2024-02-14T03:32:15;4.30;;;2.67;;
5493;SDS011;2769;49.864;8.656;2024-02-14T03:34:43;3.37;;;2.33;;
5493;SDS011;2769;49.864;8.656;2024-02-14T03:37:11;3.50;;;2.47;;
5493;SDS011;2769;49.864;8.656;2024-02-14T03:39:39;2.50;;;1.90;;
5493;SDS011;2769;49.864;8.656;2024-02-14T03:42:07;3.73;;;2.53;;
5493;SDS011;2769;49.864;8.656;2024-02-14T03:44:35;6.53;;;2.70;;
5493;SDS011;2769;49.864;8.656;2024-02-14T03:47:04;4.30;;;2.63;;
5493;SDS011;2769;49.864;8.656;2024-02-14T03:49:34;3.57;;;2.30;;
5493;SDS011;2769;49.864;8.656;2024-02-14T03:52:02;2.77;;;2.50;;
5493;SDS011;2769;49.864;8.656;2024-02-14T03:54:35;2.20;;;2.10;;
5493;SDS011;2769;49.864;8.656;2024-02-14T03:57:03;2.87;;;2.60;;
5493;SDS011;2769;49.864;8.656;2024-02-14T03:59:35;3.40;;;2.70;;
5493;SDS011;2769;49.864;8.656;2024-02-14T04:02:05;2.90;;;2.60;;
5493;SDS011;2769;49.864;8.656;2024-02-14T04:04:38;9.80;;;2.97;;
5493;SDS011;2769;49.864;8.656;2024-02-14T04:07:06;4.43;;;1.70;;
5493;SDS011;2769;49.864;8.656;2024-02-14T04:09:37;1.90;;;1.70;;
5493;SDS011;2769;49.864;8.656;2024-02-14T04:12:05;2.60;;;1.90;;
5493;SDS011;2769;49.864;8.656;2024-02-14T04:14:35;4.60;;;2.10;;
5493;SDS011;2769;49.864;8.656;2024-02-14T04:17:03;2.60;;;2.40;;
5493;SDS011;2769;49.864;8.656;2024-02-14T04:19:31;1.87;;;1.77;;
5493;SDS011;2769;49.864;8.656;2024-02-14T04:22:01;6.07;;;1.83;;
5493;SDS011;2769;49.864;8.656;2024-02-14T04:24:29;4.23;;;1.80;;
5493;SDS011;2769;49.864;8.656;2024-02-14T04:26:57;2.53;;;2.13;;
5493;SDS011;2769;49.864;8.656;2024-02-14T04:29:25;2.20;;;2.10;;
5493;SDS011;2769;49.864;8.656;2024-02-14T04:31:54;2.53;;;1.90;;
5493;SDS011;2769;49.864;8.656;2024-02-14T04:34:23;3.33;;;2.10;;
5493;SDS011;2769;49.864;8.656;2024-02-14T04:36:51;4.70;;;2.03;;
5493;SDS011;2769;49.864;8.656;2024-02-14T04:39:20;2.90;;;2.00;;
5493;SDS011;2769;49.864;8.656;2024-02-14T04:41:48;2.07;;;1.83;;
5493;SDS011;2769;49.864;8.656;2024-02-14T04:44:27;5.83;;;2.80;;
5493;SDS011;2769;49.864;8.656;2024-02-14T04:46:55;5.50;;;2.53;;
5493;SDS011;2769;49.864;8.656;2024-02-14T04:49:25;2.53;;;2.27;;
5493;SDS011;2769;49.864;8.656;2024-02-14T04:51:55;4.20;;;2.70;;
5493;SDS011;2769;49.864;8.656;2024-02-14T04:54:25;4.50;;;3.07;;
5493;SDS011;2769;49.864;8.656;2024-02-14T04:56:54;6.33;;;2.97;;
5493;SDS011;2769;49.864;8.656;2024-02-14T04:59:27;4.87;;;2.40;;
5493;SDS011;2769;49.864;8.656;2024-02-14T05:01:55;4.20;;;2.50;;
5493;SDS011;2769;49.864;8.656;2024-02-14T05:04:24;4.13;;;3.07;;
5493;SDS011;2769;49.864;8.656;2024-02-14T05:06:51;2.80;;;2.30;;
5493;SDS011;2769;49.864;8.656;2024-02-14T05:09:26;5.53;;;3.10;;
5493;SDS011;2769;49.864;8.656;2024-02-14T05:11:55;2.60;;;2.40;;
5493;SDS011;2769;49.864;8.656;2024-02-14T05:14:22;4.50;;;2.70;;
5493;SDS011;2769;49.864;8.656;2024-02-14T05:16:50;6.13;;;2.70;;
5493;SDS011;2769;49.864;8.656;2024-02-14T05:19:19;5.03;;;3.03;;
5493;SDS011;2769;49.864;8.656;2024-02-14T05:21:48;3.20;;;2.83;;
5493;SDS011;2769;49.864;8.656;2024-02-14T05:24:16;9.00;;;2.90;;
5493;SDS011;2769;49.864;8.656;2024-02-14T05:26:46;2.80;;;2.60;;
5493;SDS011;2769;49.864;8.656;2024-02-14T05:29:15;8.10;;;2.57;;
5493;SDS011;2769;49.864;8.656;2024-02-14T05:31:45;3.10;;;2.70;;
5493;SDS011;2769;49.864;8.656;2024-02-14T05:34:15;4.53;;;3.00;;
5493;SDS011;2769;49.864;8.656;2024-02-14T05:36:46;3.00;;;2.80;;
5493;SDS011;2769;49.864;8.656;2024-02-14T05:39:14;4.53;;;3.10;;
5493;SDS011;2769;49.864;8.656;2024-02-14T05:41:42;5.33;;;2.60;;
5493;SDS011;2769;49.864;8.656;2024-02-14T05:44:12;5.20;;;2.97;;
5493;SDS011;2769;49.864;8.656;2024-02-14T05:46:40;4.00;;;2.40;;
5493;SDS011;2769;49.864;8.656;2024-02-14T05:49:08;3.13;;;2.83;;
5493;SDS011;2769;49.864;8.656;2024-02-14T05:51:36;2.90;;;2.43;;
5493;SDS011;2769;49.864;8.656;2024-02-14T05:54:04;4.80;;;2.47;;
5493;SDS011;2769;49.864;8.656;2024-02-14T05:56:32;5.33;;;3.20;;
5493;SDS011;2769;49.864;8.656;2024-02-14T05:59:00;3.60;;;2.80;;
5493;SDS011;2769;49.864;8.656;2024-02-14T06:01:30;4.20;;;2.83;;
5493;SDS011;2769;49.864;8.656;2024-02-14T06:03:58;6.90;;;3.40;;
5493;SDS011;2769;49.864;8.656;2024-02-14T06:06:27;3.43;;;2.60;;
5493;SDS011;2769;49.864;8.656;2024-02-14T06:08:55;5.30;;;2.70;;
5493;SDS011;2769;49.864;8.656;2024-02-14T06:11:24;3.13;;;2.83;;
5493;SDS011;2769;49.864;8.656;2024-02-14T06:13:53;3.60;;;3.00;;
5493;SDS011;2769;49.864;8.656;2024-02-14T06:16:21;5.20;;;2.70;;
5493;SDS011;2769;49.864;8.656;2024-02-14T06:18:50;6.20;;;2.67;;
5493;SDS011;2769;49.864;8.656;2024-02-14T06:21:19;5.03;;;3.03;;
5493;SDS011;2769;49.864;8.656;2024-02-14T06:23:47;4.37;;;3.23;;
5493;SDS011;2769;49.864;8.656;2024-02-14T06:26:15;4.63;;;3.17;;
5493;SDS011;2769;49.864;8.656;2024-02-14T06:28:44;6.83;;;3.33;;
5493;SDS011;2769;49.864;8.656;2024-02-14T06:31:12;6.00;;;3.20;;
5493;SDS011;2769;49.864;8.656;2024-02-14T06:33:40;4.83;;;3.23;;
5493;SDS011;2769;49.864;8.656;2024-02-14T06:36:10;4.10;;;3.20;;
5493;SDS011;2769;49.864;8.656;2024-02-14T06:38:38;5.93;;;3.00;;
5493;SDS011;2769;49.864;8.656;2024-02-14T06:41:06;4.60;;;2.80;;
5493;SDS011;2769;49.864;8.656;2024-02-14T06:43:34;4.50;;;2.57;;
5493;SDS011;2769;49.864;8.656;2024-02-14T06:46:04;3.13;;;2.93;;
5493;SDS011;2769;49.864;8.656;2024-02-14T06:48:32;6.33;;;3.40;;
5493;SDS011;2769;49.864;8.656;2024-02-14T06:51:01;4.77;;;3.40;;
5493;SDS011;2769;49.864;8.656;2024-02-14T06:53:30;3.43;;;2.93;;
5493;SDS011;2769;49.864;8.656;2024-02-14T06:55:58;4.17;;;3.10;;
5493;SDS011;2769;49.864;8.656;2024-02-14T06:58:26;6.40;;;3.27;;
5493;SDS011;2769;49.864;8.656;2024-02-14T07:00:54;7.20;;;3.37;;
5493;SDS011;2769;49.864;8.656;2024-02-14T07:03:22;4.77;;;3.60;;
5493;SDS011;2769;49.864;8.656;2024-02-14T07:05:50;3.13;;;2.60;;
5493;SDS011;2769;49.864;8.656;2024-02-14T07:08:19;4.03;;;3.37;;
5493;SDS011;2769;49.864;8.656;2024-02-14T07:10:49;4.23;;;3.03;;
5493;SDS011;2769;49.864;8.656;2024-02-14T07:13:17;5.00;;;2.97;;
5493;SDS011;2769;49.864;8.656;2024-02-14T07:15:45;5.60;;;3.17;;
5493;SDS011;2769;49.864;8.656;2024-02-14T07:18:15;4.63;;;3.07;;
5493;SDS011;2769;49.864;8.656;2024-02-14T07:20:43;7.33;;;3.47;;
5493;SDS011;2769;49.864;8.656;2024-02-14T07:23:11;6.00;;;3.23;;
5493;SDS011;2769;49.864;8.656;2024-02-14T07:25:39;2.90;;;2.60;;
5493;SDS011;2769;49.864;8.656;2024-02-14T07:28:09;4.30;;;2.93;;
5493;SDS011;2769;49.864;8.656;2024-02-14T07:30:37;8.83;;;3.50;;
5493;SDS011;2769;49.864;8.656;2024-02-14T07:33:05;5.60;;;3.80;;
5493;SDS011;2769;49.864;8.656;2024-02-14T07:35:34;5.00;;;3.03;;
5493;SDS011;2769;49.864;8.656;2024-02-14T07:38:03;6.17;;;3.23;;
5493;SDS011;2769;49.864;8.656;2024-02-14T07:40:31;3.40;;;3.10;;
5493;SDS011;2769;49.864;8.656;2024-02-14T07:42:59;4.80;;;3.10;;
5493;SDS011;2769;49.864;8.656;2024-02-14T07:45:30;4.33;;;3.13;;
5493;SDS011;2769;49.864;8.656;2024-02-14T07:47:57;4.10;;;3.07;;
5493;SDS011;2769;49.864;8.656;2024-02-14T07:50:26;7.10;;;3.17;;
5493;SDS011;2769;49.864;8.656;2024-02-14T07:52:54;3.77;;;3.30;;
5493;SDS011;2769;49.864;8.656;2024-02-14T07:55:22;11.13;;;3.33;;
5493;SDS011;2769;49.864;8.656;2024-02-14T07:57:50;4.10;;;2.50;;
5493;SDS011;2769;49.864;8.656;2024-02-14T08:00:19;4.30;;;3.13;;
5493;SDS011;2769;49.864;8.656;2024-02-14T08:02:51;4.10;;;2.40;;
5493;SDS011;2769;49.864;8.656;2024-02-14T08:05:19;5.67;;;3.10;;
5493;SDS011;2769;49.864;8.656;2024-02-14T08:07:47;5.00;;;3.00;;
5493;SDS011;2769;49.864;8.656;2024-02-14T08:10:15;5.50;;;3.10;;
5493;SDS011;2769;49.864;8.656;2024-02-14T08:12:43;4.53;;;3.10;;
5493;SDS011;2769;49.864;8.656;2024-02-14T08:15:11;7.40;;;2.77;;
5493;SDS011;2769;49.864;8.656;2024-02-14T08:17:39;4.63;;;2.87;;
5493;SDS011;2769;49.864;8.656;2024-02-14T08:20:13;4.20;;;2.63;;
5493;SDS011;2769;49.864;8.656;2024-02-14T08:22:41;7.90;;;3.23;;
5493;SDS011;2769;49.864;8.656;2024-02-14T08:25:09;4.53;;;3.00;;
5493;SDS011;2769;49.864;8.656;2024-02-14T08:27:38;4.20;;;2.60;;
5493;SDS011;2769;49.864;8.656;2024-02-14T08:30:06;2.90;;;2.70;;
5493;SDS011;2769;49.864;8.656;2024-02-14T08:32:35;3.00;;;2.70;;
5493;SDS011;2769;49.864;8.656;2024-02-14T08:35:04;3.60;;;2.90;;
5493;SDS011;2769;49.864;8.656;2024-02-14T08:37:35;3.47;;;2.80;;
5493;SDS011;2769;49.864;8.656;2024-02-14T08:40:05;2.30;;;2.13;;
5493;SDS011;2769;49.864;8.656;2024-02-14T08:42:33;5.63;;;3.10;;
5493;SDS011;2769;49.864;8.656;2024-02-14T08:45:02;4.33;;;2.80;;
5493;SDS011;2769;49.864;8.656;2024-02-14T08:47:30;10.20;;;3.17;;
5493;SDS011;2769;49.864;8.656;2024-02-14T08:49:58;6.23;;;3.03;;
5493;SDS011;2769;49.864;8.656;2024-02-14T08:52:26;6.13;;;2.67;;
5493;SDS011;2769;49.864;8.656;2024-02-14T08:54:56;5.17;;;2.70;;
5493;SDS011;2769;49.864;8.656;2024-02-14T08:57:24;4.07;;;3.10;;
5493;SDS011;2769;49.864;8.656;2024-02-14T08:59:52;5.50;;;3.07;;
5493;SDS011;2769;49.864;8.656;2024-02-14T09:02:22;6.60;;;2.83;;
5493;SDS011;2769;49.864;8.656;2024-02-14T09:04:51;8.00;;;2.70;;
5493;SDS011;2769;49.864;8.656;2024-02-14T09:07:19;3.30;;;2.97;;
5493;SDS011;2769;49.864;8.656;2024-02-14T09:09:47;5.77;;;3.00;;
5493;SDS011;2769;49.864;8.656;2024-02-14T09:12:17;3.73;;;3.40;;
5493;SDS011;2769;49.864;8.656;2024-02-14T09:14:45;6.13;;;2.80;;
5493;SDS011;2769;49.864;8.656;2024-02-14T09:17:16;3.93;;;2.80;;
5493;SDS011;2769;49.864;8.656;2024-02-14T09:19:44;4.77;;;2.60;;
5493;SDS011;2769;49.864;8.656;2024-02-14T09:22:12;10.40;;;3.63;;
5493;SDS011;2769;49.864;8.656;2024-02-14T09:24:44;2.93;;;2.67;;
5493;SDS011;2769;49.864;8.656;2024-02-14T09:27:12;3.60;;;2.80;;
5493;SDS011;2769;49.864;8.656;2024-02-14T09:29:42;5.10;;;3.07;;
5493;SDS011;2769;49.864;8.656;2024-02-14T09:32:10;5.77;;;3.40;;
5493;SDS011;2769;49.864;8.656;2024-02-14T09:34:38;7.70;;;2.83;;
5493;SDS011;2769;49.864;8.656;2024-02-14T09:37:07;3.37;;;2.80;;
5493;SDS011;2769;49.864;8.656;2024-02-14T09:39:35;7.17;;;3.37;;
5493;SDS011;2769;49.864;8.656;2024-02-14T09:42:06;3.90;;;2.77;;
5493;SDS011;2769;49.864;8.656;2024-02-14T09:44:36;5.43;;;3.27;;
5493;SDS011;2769;49.864;8.656;2024-02-14T09:47:06;3.73;;;3.03;;
5493;SDS011;2769;49.864;8.656;2024-02-14T09:49:35;3.60;;;3.10;;
5493;SDS011;2769;49.864;8.656;2024-02-14T09:52:04;6.10;;;3.00;;
5493;SDS011;2769;49.864;8.656;2024-02-14T09:54:33;3.93;;;3.23;;
5493;SDS011;2769;49.864;8.656;2024-02-14T09:57:01;4.93;;;3.00;;
5493;SDS011;2769;49.864;8.656;2024-02-14T09:59:30;7.20;;;2.80;;
5493;SDS011;2769;49.864;8.656;2024-02-14T10:01:58;3.07;;;2.67;;
5493;SDS011;2769;49.864;8.656;2024-02-14T10:04:27;4.73;;;3.27;;
5493;SDS011;2769;49.864;8.656;2024-02-14T10:06:55;2.83;;;2.57;;
5493;SDS011;2769;49.864;8.656;2024-02-14T10:09:25;7.20;;;2.93;;
5493;SDS011;2769;49.864;8.656;2024-02-14T10:11:53;5.50;;;2.90;;
5493;SDS011;2769;49.864;8.656;2024-02-14T10:14:22;6.90;;;2.73;;
5493;SDS011;2769;49.864;8.656;2024-02-14T10:16:50;8.67;;;3.20;;
5493;SDS011;2769;49.864;8.656;2024-02-14T10:19:18;4.33;;;3.00;;
5493;SDS011;2769;49.864;8.656;2024-02-14T10:21:56;8.00;;;3.50;;
5493;SDS011;2769;49.864;8.656;2024-02-14T10:24:28;9.50;;;3.37;;
5493;SDS011;2769;49.864;8.656;2024-02-14T10:26:58;4.50;;;3.50;;
5493;SDS011;2769;49.864;8.656;2024-02-14T10:29:27;5.17;;;2.90;;
5493;SDS011;2769;49.864;8.656;2024-02-14T10:31:54;5.50;;;2.80;;
5493;SDS011;2769;49.864;8.656;2024-02-14T10:34:24;6.20;;;2.90;;
5493;SDS011;2769;49.864;8.656;2024-02-14T10:36:56;5.73;;;2.67;;
5493;SDS011;2769;49.864;8.656;2024-02-14T10:39:24;3.73;;;3.00;;
5493;SDS011;2769;49.864;8.656;2024-02-14T10:41:53;7.00;;;3.27;;
5493;SDS011;2769;49.864;8.656;2024-02-14T10:44:21;8.43;;;3.87;;
5493;SDS011;2769;49.864;8.656;2024-02-14T10:46:49;4.63;;;3.20;;
5493;SDS011;2769;49.864;8.656;2024-02-14T10:49:20;6.00;;;2.97;;
5493;SDS011;2769;49.864;8.656;2024-02-14T10:51:49;5.20;;;3.50;;
5493;SDS011;2769;49.864;8.656;2024-02-14T10:54:21;7.97;;;3.50;;
5493;SDS011;2769;49.864;8.656;2024-02-14T10:56:50;3.87;;;3.20;;
5493;SDS011;2769;49.864;8.656;2024-02-14T10:59:19;5.43;;;3.73;;
5493;SDS011;2769;49.864;8.656;2024-02-14T11:01:48;19.23;;;3.33;;
5493;SDS011;2769;49.864;8.656;2024-02-14T11:04:16;8.00;;;4.33;;
5493;SDS011;2769;49.864;8.656;2024-02-14T11:06:46;6.13;;;3.60;;
5493;SDS011;2769;49.864;8.656;2024-02-14T11:09:15;4.00;;;3.50;;
5493;SDS011;2769;49.864;8.656;2024-02-14T11:11:44;6.10;;;3.20;;
5493;SDS011;2769;49.864;8.656;2024-02-14T11:14:14;6.80;;;3.87;;
5493;SDS011;2769;49.864;8.656;2024-02-14T11:16:44;3.30;;;3.10;;
5493;SDS011;2769;49.864;8.656;2024-02-14T11:19:13;4.47;;;3.03;;
5493;SDS011;2769;49.864;8.656;2024-02-14T11:21:44;4.10;;;3.03;;
5493;SDS011;2769;49.864;8.656;2024-02-14T11:24:14;7.13;;;3.23;;
5493;SDS011;2769;49.864;8.656;2024-02-14T11:26:47;5.33;;;2.97;;
5493;SDS011;2769;49.864;8.656;2024-02-14T11:29:18;5.20;;;3.03;;
5493;SDS011;2769;49.864;8.656;2024-02-14T11:31:57;5.60;;;2.80;;
5493;SDS011;2769;49.864;8.656;2024-02-14T11:34:26;6.20;;;3.43;;
5493;SDS011;2769;49.864;8.656;2024-02-14T11:36:55;2.47;;;2.27;;
5493;SDS011;2769;49.864;8.656;2024-02-14T11:39:23;5.87;;;2.80;;
5493;SDS011;2769;49.864;8.656;2024-02-14T11:41:52;4.63;;;2.50;;
5493;SDS011;2769;49.864;8.656;2024-02-14T11:44:20;4.30;;;3.10;;
5493;SDS011;2769;49.864;8.656;2024-02-14T11:46:48;8.97;;;2.60;;
5493;SDS011;2769;49.864;8.656;2024-02-14T11:49:16;3.37;;;2.53;;
5493;SDS011;2769;49.864;8.656;2024-02-14T11:51:45;3.33;;;2.10;;
5493;SDS011;2769;49.864;8.656;2024-02-14T11:54:14;8.00;;;3.40;;
5493;SDS011;2769;49.864;8.656;2024-02-14T11:56:42;4.20;;;2.60;;
5493;SDS011;2769;49.864;8.656;2024-02-14T11:59:11;7.53;;;2.63;;
5493;SDS011;2769;49.864;8.656;2024-02-14T12:01:41;8.03;;;2.50;;
5493;SDS011;2769;49.864;8.656;2024-02-14T12:04:10;2.63;;;2.20;;
5493;SDS011;2769;49.864;8.656;2024-02-14T12:06:39;3.57;;;1.90;;
5493;SDS011;2769;49.864;8.656;2024-02-14T12:09:08;2.23;;;2.13;;
5493;SDS011;2769;49.864;8.656;2024-02-14T12:11:38;2.93;;;1.80;;
5493;SDS011;2769;49.864;8.656;2024-02-14T12:14:07;1.90;;;1.80;;
5493;SDS011;2769;49.864;8.656;2024-02-14T12:16:38;2.20;;;2.00;;
5493;SDS011;2769;49.864;8.656;2024-02-14T12:19:07;3.17;;;2.20;;
5493;SDS011;2769;49.864;8.656;2024-02-14T12:21:37;4.60;;;2.20;;
5493;SDS011;2769;49.864;8.656;2024-02-14T12:24:06;2.67;;;2.20;;
5493;SDS011;2769;49.864;8.656;2024-02-14T12:26:35;1.93;;;1.83;;
5493;SDS011;2769;49.864;8.656;2024-02-14T12:29:05;2.87;;;1.73;;
5493;SDS011;2769;49.864;8.656;2024-02-14T12:31:34;2.93;;;2.20;;
5493;SDS011;2769;49.864;8.656;2024-02-14T12:34:04;5.03;;;2.17;;
5493;SDS011;2769;49.864;8.656;2024-02-14T12:36:33;6.50;;;2.00;;
5493;SDS011;2769;49.864;8.656;2024-02-14T12:39:01;1.93;;;1.83;;
5493;SDS011;2769;49.864;8.656;2024-02-14T12:41:30;2.40;;;2.20;;
5493;SDS011;2769;49.864;8.656;2024-02-14T12:44:02;2.10;;;1.60;;
5493;SDS011;2769;49.864;8.656;2024-02-14T12:46:30;1.97;;;1.87;;
5493;SDS011;2769;49.864;8.656;2024-02-14T12:48:58;4.60;;;2.13;;
5493;SDS011;2769;49.864;8.656;2024-02-14T12:51:28;2.27;;;2.07;;
5493;SDS011;2769;49.864;8.656;2024-02-14T12:53:56;2.80;;;2.57;;
5493;SDS011;2769;49.864;8.656;2024-02-14T12:56:24;4.27;;;2.63;;
5493;SDS011;2769;49.864;8.656;2024-02-14T12:58:52;11.20;;;2.10;;
5493;SDS011;2769;49.864;8.656;2024-02-14T13:01:23;4.43;;;4.03;;
5493;SDS011;2769;49.864;8.656;2024-02-14T13:03:51;2.53;;;2.43;;
5493;SDS011;2769;49.864;8.656;2024-02-14T13:06:19;2.80;;;2.50;;
5493;SDS011;2769;49.864;8.656;2024-02-14T13:08:49;2.47;;;2.20;;
5493;SDS011;2769;49.864;8.656;2024-02-14T13:11:17;2.77;;;2.50;;
5493;SDS011;2769;49.864;8.656;2024-02-14T13:13:45;2.60;;;2.30;;
5493;SDS011;2769;49.864;8.656;2024-02-14T13:16:13;2.50;;;2.27;;
5493;SDS011;2769;49.864;8.656;2024-02-14T13:18:41;3.00;;;1.90;;
5493;SDS011;2769;49.864;8.656;2024-02-14T13:21:09;1.93;;;1.83;;
5493;SDS011;2769;49.864;8.656;2024-02-14T13:23:37;8.03;;;1.90;;
5493;SDS011;2769;49.864;8.656;2024-02-14T13:26:08;2.53;;;1.67;;
5493;SDS011;2769;49.864;8.656;2024-02-14T13:28:36;2.13;;;1.87;;
5493;SDS011;2769;49.864;8.656;2024-02-14T13:31:04;2.20;;;2.10;;
5493;SDS011;2769;49.864;8.656;2024-02-14T13:33:32;2.00;;;1.63;;
5493;SDS011;2769;49.864;8.656;2024-02-14T13:36:00;1.83;;;1.70;;
5493;SDS011;2769;49.864;8.656;2024-02-14T13:38:28;2.20;;;2.00;;
5493;SDS011;2769;49.864;8.656;2024-02-14T13:40:57;2.10;;;2.00;;
5493;SDS011;2769;49.864;8.656;2024-02-14T13:43:27;2.93;;;2.37;;
5493;SDS011;2769;49.864;8.656;2024-02-14T13:45:55;1.70;;;1.60;;
5493;SDS011;2769;49.864;8.656;2024-02-14T13:48:23;2.60;;;2.40;;
5493;SDS011;2769;49.864;8.656;2024-02-14T13:50:51;2.40;;;2.20;;
5493;SDS011;2769;49.864;8.656;2024-02-14T13:53:21;1.93;;;1.83;;
5493;SDS011;2769;49.864;8.656;2024-02-14T13:55:49;3.33;;;2.00;;
5493;SDS011;2769;49.864;8.656;2024-02-14T13:58:18;2.60;;;2.23;;
5493;SDS011;2769;49.864;8.656;2024-02-14T14:00:47;4.47;;;2.80;;
5493;SDS011;2769;49.864;8.656;2024-02-14T14:03:15;4.63;;;2.93;;
5493;SDS011;2769;49.864;8.656;2024-02-14T14:05:43;5.17;;;2.73;;
5493;SDS011;2769;49.864;8.656;2024-02-14T14:08:11;3.43;;;2.80;;
5493;SDS011;2769;49.864;8.656;2024-02-14T14:10:39;4.50;;;3.20;;
5493;SDS011;2769;49.864;8.656;2024-02-14T14:13:09;4.00;;;3.50;;
5493;SDS011;2769;49.864;8.656;2024-02-14T14:15:37;3.13;;;2.73;;
5493;SDS011;2769;49.864;8.656;2024-02-14T14:18:06;3.30;;;3.00;;
5493;SDS011;2769;49.864;8.656;2024-02-14T14:20:35;7.20;;;3.63;;
5493;SDS011;2769;49.864;8.656;2024-02-14T14:23:03;5.50;;;3.57;;
5493;SDS011;2769;49.864;8.656;2024-02-14T14:25:32;4.23;;;2.90;;
5493;SDS011;2769;49.864;8.656;2024-02-14T14:28:00;4.67;;;4.00;;
5493;SDS011;2769;49.864;8.656;2024-02-14T14:30:32;3.87;;;3.57;;
5493;SDS011;2769;49.864;8.656;2024-02-14T14:33:00;3.80;;;3.50;;
5493;SDS011;2769;49.864;8.656;2024-02-14T14:35:30;4.00;;;3.60;;
5493;SDS011;2769;49.864;8.656;2024-02-14T14:38:00;4.47;;;4.07;;
5493;SDS011;2769;49.864;8.656;2024-02-14T14:40:29;4.93;;;3.60;;
5493;SDS011;2769;49.864;8.656;2024-02-14T14:42:57;4.33;;;3.30;;
5493;SDS011;2769;49.864;8.656;2024-02-14T14:45:25;5.43;;;3.50;;
5493;SDS011;2769;49.864;8.656;2024-02-14T14:47:54;5.50;;;3.70;;
5493;SDS011;2769;49.864;8.656;2024-02-14T14:50:22;3.90;;;3.27;;
5493;SDS011;2769;49.864;8.656;2024-02-14T14:52:53;8.27;;;3.37;;
5493;SDS011;2769;49.864;8.656;2024-02-14T14:55:21;3.90;;;3.50;;
5493;SDS011;2769;49.864;8.656;2024-02-14T14:57:49;6.90;;;3.50;;
5493;SDS011;2769;49.864;8.656;2024-02-14T15:00:17;3.70;;;3.40;;
5493;SDS011;2769;49.864;8.656;2024-02-14T15:02:45;5.20;;;4.40;;
5493;SDS011;2769;49.864;8.656;2024-02-14T15:05:13;6.93;;;3.70;;
5493;SDS011;2769;49.864;8.656;2024-02-14T15:07:42;4.30;;;3.90;;
5493;SDS011;2769;49.864;8.656;2024-02-14T15:10:12;3.90;;;3.60;;
5493;SDS011;2769;49.864;8.656;2024-02-14T15:12:40;3.47;;;3.17;;
5493;SDS011;2769;49.864;8.656;2024-02-14T15:15:08;7.80;;;4.03;;
5493;SDS011;2769;49.864;8.656;2024-02-14T15:17:39;3.83;;;3.57;;
5493;SDS011;2769;49.864;8.656;2024-02-14T15:20:07;6.10;;;3.77;;
5493;SDS011;2769;49.864;8.656;2024-02-14T15:22:36;7.30;;;4.23;;
5493;SDS011;2769;49.864;8.656;2024-02-14T15:25:04;4.23;;;3.30;;